sensor_id;sensor_type;location;lat;lon;timestamp;P1;durP1;ratioP1;P2;durP2;ratioP2
40595;SDS011;26304;48.794;9.820;2023-07-28T00:01:49;3.05;;;2.78;;
40595;SDS011;26304;48.794;9.820;2023-07-28T00:07:33;2.75;;;2.55;;
40595;SDS011;26304;48.794;9.820;2023-07-28T00:13:17;4.05;;;3.58;;
40595;SDS011;26304;48.794;9.820;2023-07-28T00:18:59;4.18;;;3.70;;
40595;SDS011;26304;48.794;9.820;2023-07-28T00:24:43;3.85;;;3.55;;
40595;SDS011;26304;48.794;9.820;2023-07-28T00:30:25;3.67;;;3.35;;
40595;SDS011;26304;48.794;9.820;2023-07-28T00:36:08;3.45;;;3.08;;
40595;SDS011;26304;48.794;9.820;2023-07-28T00:41:51;3.05;;;2.85;;
40595;SDS011;26304;48.794;9.820;2023-07-28T00:47:34;3.55;;;2.92;;
40595;SDS011;26304;48.794;9.820;2023-07-28T00:53:17;2.80;;;2.60;;
40595;SDS011;26304;48.794;9.820;2023-07-28T00:59:00;2.80;;;2.55;;
40595;SDS011;26304;48.794;9.820;2023-07-28T01:04:43;3.58;;;2.90;;
40595;SDS011;26304;48.794;9.820;2023-07-28T01:10:26;2.85;;;2.65;;
40595;SDS011;26304;48.794;9.820;2023-07-28T01:16:13;4.55;;;2.78;;
40595;SDS011;26304;48.794;9.820;2023-07-28T01:21:57;2.83;;;2.30;;
40595;SDS011;26304;48.794;9.820;2023-07-28T01:27:49;2.70;;;2.50;;
40595;SDS011;26304;48.794;9.820;2023-07-28T01:33:33;2.75;;;2.35;;
40595;SDS011;26304;48.794;9.820;2023-07-28T01:39:16;2.42;;;2.33;;
40595;SDS011;26304;48.794;9.820;2023-07-28T01:45:00;2.65;;;2.38;;
40595;SDS011;26304;48.794;9.820;2023-07-28T01:50:42;2.58;;;2.28;;
40595;SDS011;26304;48.794;9.820;2023-07-28T01:56:25;2.58;;;2.38;;
40595;SDS011;26304;48.794;9.820;2023-07-28T02:02:09;2.53;;;2.33;;
40595;SDS011;26304;48.794;9.820;2023-07-28T02:07:51;2.60;;;2.40;;
40595;SDS011;26304;48.794;9.820;2023-07-28T02:13:34;2.67;;;2.08;;
40595;SDS011;26304;48.794;9.820;2023-07-28T02:19:18;2.50;;;2.28;;
40595;SDS011;26304;48.794;9.820;2023-07-28T02:25:00;2.28;;;2.08;;
40595;SDS011;26304;48.794;9.820;2023-07-28T02:30:43;2.20;;;2.00;;
40595;SDS011;26304;48.794;9.820;2023-07-28T02:36:26;2.40;;;2.20;;
40595;SDS011;26304;48.794;9.820;2023-07-28T02:42:09;2.45;;;2.30;;
40595;SDS011;26304;48.794;9.820;2023-07-28T02:47:51;3.47;;;2.60;;
40595;SDS011;26304;48.794;9.820;2023-07-28T02:53:35;2.30;;;2.10;;
40595;SDS011;26304;48.794;9.820;2023-07-28T02:59:17;2.00;;;1.90;;
40595;SDS011;26304;48.794;9.820;2023-07-28T03:05:00;2.45;;;2.25;;
40595;SDS011;26304;48.794;9.820;2023-07-28T03:10:44;3.25;;;2.58;;
40595;SDS011;26304;48.794;9.820;2023-07-28T03:16:26;3.25;;;2.30;;
40595;SDS011;26304;48.794;9.820;2023-07-28T03:22:08;2.75;;;2.55;;
40595;SDS011;26304;48.794;9.820;2023-07-28T03:27:52;3.97;;;3.00;;
40595;SDS011;26304;48.794;9.820;2023-07-28T03:33:35;2.65;;;2.45;;
40595;SDS011;26304;48.794;9.820;2023-07-28T03:39:17;2.85;;;2.28;;
40595;SDS011;26304;48.794;9.820;2023-07-28T03:45:01;2.80;;;2.53;;
40595;SDS011;26304;48.794;9.820;2023-07-28T03:50:44;2.75;;;2.55;;
40595;SDS011;26304;48.794;9.820;2023-07-28T03:56:26;2.65;;;2.42;;
40595;SDS011;26304;48.794;9.820;2023-07-28T04:02:11;2.70;;;2.50;;
40595;SDS011;26304;48.794;9.820;2023-07-28T04:07:53;2.60;;;2.40;;
40595;SDS011;26304;48.794;9.820;2023-07-28T04:13:35;2.38;;;2.17;;
40595;SDS011;26304;48.794;9.820;2023-07-28T04:19:19;2.70;;;2.35;;
40595;SDS011;26304;48.794;9.820;2023-07-28T04:25:02;2.70;;;2.50;;
40595;SDS011;26304;48.794;9.820;2023-07-28T04:30:44;2.60;;;2.40;;
40595;SDS011;26304;48.794;9.820;2023-07-28T04:36:28;4.10;;;2.45;;
40595;SDS011;26304;48.794;9.820;2023-07-28T04:42:10;2.65;;;2.45;;
40595;SDS011;26304;48.794;9.820;2023-07-28T04:47:53;2.53;;;2.03;;
40595;SDS011;26304;48.794;9.820;2023-07-28T04:53:36;2.65;;;2.45;;
40595;SDS011;26304;48.794;9.820;2023-07-28T04:59:19;1.95;;;1.85;;
40595;SDS011;26304;48.794;9.820;2023-07-28T05:05:01;3.03;;;2.42;;
40595;SDS011;26304;48.794;9.820;2023-07-28T05:10:45;2.30;;;2.20;;
40595;SDS011;26304;48.794;9.820;2023-07-28T05:16:27;2.60;;;2.40;;
40595;SDS011;26304;48.794;9.820;2023-07-28T05:22:10;3.35;;;2.13;;
40595;SDS011;26304;48.794;9.820;2023-07-28T05:27:54;4.15;;;2.55;;
40595;SDS011;26304;48.794;9.820;2023-07-28T05:33:38;2.78;;;2.00;;
40595;SDS011;26304;48.794;9.820;2023-07-28T05:39:20;3.40;;;2.08;;
40595;SDS011;26304;48.794;9.820;2023-07-28T05:45:05;2.80;;;2.15;;
40595;SDS011;26304;48.794;9.820;2023-07-28T05:50:48;2.75;;;2.10;;
40595;SDS011;26304;48.794;9.820;2023-07-28T05:56:32;2.70;;;2.00;;
40595;SDS011;26304;48.794;9.820;2023-07-28T06:02:16;2.60;;;2.20;;
40595;SDS011;26304;48.794;9.820;2023-07-28T06:07:58;2.35;;;2.15;;
40595;SDS011;26304;48.794;9.820;2023-07-28T06:13:41;2.25;;;2.15;;
40595;SDS011;26304;48.794;9.820;2023-07-28T06:19:24;2.60;;;2.05;;
40595;SDS011;26304;48.794;9.820;2023-07-28T06:25:07;2.22;;;2.05;;
40595;SDS011;26304;48.794;9.820;2023-07-28T06:30:53;2.75;;;2.13;;
40595;SDS011;26304;48.794;9.820;2023-07-28T06:36:37;2.88;;;2.58;;
40595;SDS011;26304;48.794;9.820;2023-07-28T06:42:19;2.75;;;2.20;;
40595;SDS011;26304;48.794;9.820;2023-07-28T06:48:04;2.42;;;2.13;;
40595;SDS011;26304;48.794;9.820;2023-07-28T06:53:48;2.30;;;1.63;;
40595;SDS011;26304;48.794;9.820;2023-07-28T06:59:31;2.17;;;1.98;;
40595;SDS011;26304;48.794;9.820;2023-07-28T07:05:14;1.85;;;1.75;;
40595;SDS011;26304;48.794;9.820;2023-07-28T07:10:58;2.13;;;2.00;;
40595;SDS011;26304;48.794;9.820;2023-07-28T07:16:41;2.15;;;1.95;;
40595;SDS011;26304;48.794;9.820;2023-07-28T07:22:23;2.03;;;1.92;;
40595;SDS011;26304;48.794;9.820;2023-07-28T07:28:07;1.95;;;1.85;;
40595;SDS011;26304;48.794;9.820;2023-07-28T07:33:50;2.05;;;1.95;;
40595;SDS011;26304;48.794;9.820;2023-07-28T07:39:32;2.35;;;2.00;;
40595;SDS011;26304;48.794;9.820;2023-07-28T07:45:18;1.83;;;1.73;;
40595;SDS011;26304;48.794;9.820;2023-07-28T07:51:00;1.90;;;1.80;;
40595;SDS011;26304;48.794;9.820;2023-07-28T07:56:43;1.80;;;1.70;;
40595;SDS011;26304;48.794;9.820;2023-07-28T08:02:28;2.03;;;1.45;;
40595;SDS011;26304;48.794;9.820;2023-07-28T08:08:12;1.77;;;1.67;;
40595;SDS011;26304;48.794;9.820;2023-07-28T08:13:56;1.90;;;1.80;;
40595;SDS011;26304;48.794;9.820;2023-07-28T08:19:40;1.70;;;1.60;;
40595;SDS011;26304;48.794;9.820;2023-07-28T08:25:22;1.80;;;1.70;;
40595;SDS011;26304;48.794;9.820;2023-07-28T08:31:05;1.80;;;1.70;;
40595;SDS011;26304;48.794;9.820;2023-07-28T08:36:49;1.95;;;1.85;;
40595;SDS011;26304;48.794;9.820;2023-07-28T08:42:35;1.60;;;1.50;;
40595;SDS011;26304;48.794;9.820;2023-07-28T08:48:19;1.80;;;1.70;;
40595;SDS011;26304;48.794;9.820;2023-07-28T08:54:03;1.92;;;1.83;;
40595;SDS011;26304;48.794;9.820;2023-07-28T08:59:45;2.05;;;1.95;;
40595;SDS011;26304;48.794;9.820;2023-07-28T09:05:29;1.50;;;1.33;;
40595;SDS011;26304;48.794;9.820;2023-07-28T09:11:16;2.03;;;1.70;;
40595;SDS011;26304;48.794;9.820;2023-07-28T09:17:05;1.80;;;1.70;;
40595;SDS011;26304;48.794;9.820;2023-07-28T09:22:48;1.88;;;1.77;;
40595;SDS011;26304;48.794;9.820;2023-07-28T09:28:38;1.98;;;1.88;;
40595;SDS011;26304;48.794;9.820;2023-07-28T09:34:23;4.18;;;2.20;;
40595;SDS011;26304;48.794;9.820;2023-07-28T09:40:07;1.73;;;1.63;;
40595;SDS011;26304;48.794;9.820;2023-07-28T09:45:54;1.63;;;1.52;;
40595;SDS011;26304;48.794;9.820;2023-07-28T09:51:37;1.88;;;1.77;;
40595;SDS011;26304;48.794;9.820;2023-07-28T09:57:21;2.15;;;1.95;;
40595;SDS011;26304;48.794;9.820;2023-07-28T10:03:06;1.88;;;1.77;;
40595;SDS011;26304;48.794;9.820;2023-07-28T10:08:50;7.18;;;1.77;;
40595;SDS011;26304;48.794;9.820;2023-07-28T10:14:34;2.67;;;1.67;;
40595;SDS011;26304;48.794;9.820;2023-07-28T10:20:27;1.70;;;1.60;;
40595;SDS011;26304;48.794;9.820;2023-07-28T10:26:16;2.05;;;1.95;;
40595;SDS011;26304;48.794;9.820;2023-07-28T10:32:13;6.78;;;2.10;;
40595;SDS011;26304;48.794;9.820;2023-07-28T10:44:14;5.13;;;2.42;;
40595;SDS011;26304;48.794;9.820;2023-07-28T10:49:57;8.23;;;2.53;;
40595;SDS011;26304;48.794;9.820;2023-07-28T10:55:46;9.80;;;2.60;;
40595;SDS011;26304;48.794;9.820;2023-07-28T11:01:32;7.85;;;2.17;;
40595;SDS011;26304;48.794;9.820;2023-07-28T11:07:15;4.93;;;2.47;;
40595;SDS011;26304;48.794;9.820;2023-07-28T11:12:59;4.47;;;2.50;;
40595;SDS011;26304;48.794;9.820;2023-07-28T11:18:43;8.52;;;2.67;;
40595;SDS011;26304;48.794;9.820;2023-07-28T11:24:26;3.35;;;2.10;;
40595;SDS011;26304;48.794;9.820;2023-07-28T11:30:10;8.23;;;2.53;;
40595;SDS011;26304;48.794;9.820;2023-07-28T11:35:54;3.95;;;2.55;;
40595;SDS011;26304;48.794;9.820;2023-07-28T11:41:37;5.22;;;2.17;;
40595;SDS011;26304;48.794;9.820;2023-07-28T11:47:22;4.63;;;2.00;;
40595;SDS011;26304;48.794;9.820;2023-07-28T11:53:04;3.90;;;2.10;;
40595;SDS011;26304;48.794;9.820;2023-07-28T11:58:50;2.85;;;2.10;;
40595;SDS011;26304;48.794;9.820;2023-07-28T12:04:36;2.83;;;1.77;;
40595;SDS011;26304;48.794;9.820;2023-07-28T12:10:20;3.95;;;2.30;;
40595;SDS011;26304;48.794;9.820;2023-07-28T12:16:02;4.07;;;1.88;;
40595;SDS011;26304;48.794;9.820;2023-07-28T12:21:46;4.18;;;2.05;;
40595;SDS011;26304;48.794;9.820;2023-07-28T12:27:29;3.50;;;2.33;;
40595;SDS011;26304;48.794;9.820;2023-07-28T12:33:11;3.45;;;2.03;;
40595;SDS011;26304;48.794;9.820;2023-07-28T12:38:55;2.10;;;1.90;;
40595;SDS011;26304;48.794;9.820;2023-07-28T12:44:37;3.45;;;2.17;;
40595;SDS011;26304;48.794;9.820;2023-07-28T12:50:20;1.95;;;1.70;;
40595;SDS011;26304;48.794;9.820;2023-07-28T12:56:05;3.13;;;1.80;;
40595;SDS011;26304;48.794;9.820;2023-07-28T13:01:47;2.10;;;1.77;;
40595;SDS011;26304;48.794;9.820;2023-07-28T13:07:29;1.83;;;1.73;;
40595;SDS011;26304;48.794;9.820;2023-07-28T13:13:13;1.98;;;1.88;;
40595;SDS011;26304;48.794;9.820;2023-07-28T13:18:56;1.90;;;1.70;;
40595;SDS011;26304;48.794;9.820;2023-07-28T13:24:40;5.07;;;2.22;;
40595;SDS011;26304;48.794;9.820;2023-07-28T13:30:25;6.28;;;2.13;;
40595;SDS011;26304;48.794;9.820;2023-07-28T13:36:08;6.18;;;2.28;;
40595;SDS011;26304;48.794;9.820;2023-07-28T13:41:50;4.10;;;2.38;;
40595;SDS011;26304;48.794;9.820;2023-07-28T13:47:34;3.83;;;2.00;;
40595;SDS011;26304;48.794;9.820;2023-07-28T13:53:17;5.03;;;2.25;;
40595;SDS011;26304;48.794;9.820;2023-07-28T13:58:59;4.43;;;2.15;;
40595;SDS011;26304;48.794;9.820;2023-07-28T14:04:43;5.03;;;2.13;;
40595;SDS011;26304;48.794;9.820;2023-07-28T14:10:25;4.68;;;1.98;;
40595;SDS011;26304;48.794;9.820;2023-07-28T14:16:08;4.63;;;1.50;;
40595;SDS011;26304;48.794;9.820;2023-07-28T14:21:53;3.17;;;1.88;;
40595;SDS011;26304;48.794;9.820;2023-07-28T14:27:35;2.45;;;1.80;;
40595;SDS011;26304;48.794;9.820;2023-07-28T14:33:18;3.38;;;2.10;;
40595;SDS011;26304;48.794;9.820;2023-07-28T14:39:02;5.45;;;1.88;;
40595;SDS011;26304;48.794;9.820;2023-07-28T14:44:44;3.92;;;1.50;;
40595;SDS011;26304;48.794;9.820;2023-07-28T14:50:27;10.00;;;2.47;;
40595;SDS011;26304;48.794;9.820;2023-07-28T14:56:10;6.90;;;2.28;;
40595;SDS011;26304;48.794;9.820;2023-07-28T15:01:53;3.45;;;1.92;;
40595;SDS011;26304;48.794;9.820;2023-07-28T15:07:35;3.53;;;1.92;;
40595;SDS011;26304;48.794;9.820;2023-07-28T15:13:19;3.50;;;1.55;;
40595;SDS011;26304;48.794;9.820;2023-07-28T15:19:02;3.42;;;1.80;;
40595;SDS011;26304;48.794;9.820;2023-07-28T15:24:44;1.98;;;1.83;;
40595;SDS011;26304;48.794;9.820;2023-07-28T15:30:28;2.35;;;2.10;;
40595;SDS011;26304;48.794;9.820;2023-07-28T15:36:10;2.72;;;1.55;;
40595;SDS011;26304;48.794;9.820;2023-07-28T15:41:53;2.65;;;1.80;;
40595;SDS011;26304;48.794;9.820;2023-07-28T15:47:37;3.22;;;2.00;;
40595;SDS011;26304;48.794;9.820;2023-07-28T15:53:19;1.98;;;1.80;;
40595;SDS011;26304;48.794;9.820;2023-07-28T15:59:01;3.15;;;2.00;;
40595;SDS011;26304;48.794;9.820;2023-07-28T16:04:45;2.05;;;1.80;;
40595;SDS011;26304;48.794;9.820;2023-07-28T16:10:28;2.20;;;1.95;;
40595;SDS011;26304;48.794;9.820;2023-07-28T16:16:10;1.70;;;1.60;;
40595;SDS011;26304;48.794;9.820;2023-07-28T16:21:54;2.10;;;1.90;;
40595;SDS011;26304;48.794;9.820;2023-07-28T16:27:39;2.08;;;1.73;;
40595;SDS011;26304;48.794;9.820;2023-07-28T16:33:21;1.85;;;1.75;;
40595;SDS011;26304;48.794;9.820;2023-07-28T16:39:05;1.70;;;1.60;;
40595;SDS011;26304;48.794;9.820;2023-07-28T16:44:48;2.05;;;1.70;;
40595;SDS011;26304;48.794;9.820;2023-07-28T16:50:30;4.22;;;2.00;;
40595;SDS011;26304;48.794;9.820;2023-07-28T16:56:14;4.10;;;2.05;;
40595;SDS011;26304;48.794;9.820;2023-07-28T17:01:57;1.92;;;1.80;;
40595;SDS011;26304;48.794;9.820;2023-07-28T17:07:39;2.60;;;1.67;;
40595;SDS011;26304;48.794;9.820;2023-07-28T17:13:24;4.00;;;1.67;;
40595;SDS011;26304;48.794;9.820;2023-07-28T17:19:08;4.68;;;1.92;;
40595;SDS011;26304;48.794;9.820;2023-07-28T17:24:50;3.22;;;2.00;;
40595;SDS011;26304;48.794;9.820;2023-07-28T17:30:34;2.28;;;1.88;;
40595;SDS011;26304;48.794;9.820;2023-07-28T17:36:16;5.70;;;2.42;;
40595;SDS011;26304;48.794;9.820;2023-07-28T17:41:59;3.60;;;2.30;;
40595;SDS011;26304;48.794;9.820;2023-07-28T17:47:43;2.53;;;1.98;;
40595;SDS011;26304;48.794;9.820;2023-07-28T17:53:25;2.58;;;2.20;;
40595;SDS011;26304;48.794;9.820;2023-07-28T17:59:07;2.55;;;2.30;;
40595;SDS011;26304;48.794;9.820;2023-07-28T18:04:51;2.40;;;1.92;;
40595;SDS011;26304;48.794;9.820;2023-07-28T18:10:34;2.33;;;2.10;;
40595;SDS011;26304;48.794;9.820;2023-07-28T18:16:19;3.88;;;2.38;;
40595;SDS011;26304;48.794;9.820;2023-07-28T18:22:06;2.80;;;2.40;;
40595;SDS011;26304;48.794;9.820;2023-07-28T18:27:49;2.58;;;2.38;;
40595;SDS011;26304;48.794;9.820;2023-07-28T18:33:31;2.95;;;2.33;;
40595;SDS011;26304;48.794;9.820;2023-07-28T18:39:15;2.55;;;2.35;;
40595;SDS011;26304;48.794;9.820;2023-07-28T18:44:57;2.72;;;2.53;;
40595;SDS011;26304;48.794;9.820;2023-07-28T18:50:40;2.95;;;2.65;;
40595;SDS011;26304;48.794;9.820;2023-07-28T18:56:23;2.88;;;2.40;;
40595;SDS011;26304;48.794;9.820;2023-07-28T19:02:06;2.40;;;2.20;;
40595;SDS011;26304;48.794;9.820;2023-07-28T19:07:48;2.60;;;2.40;;
40595;SDS011;26304;48.794;9.820;2023-07-28T19:13:32;4.20;;;2.83;;
40595;SDS011;26304;48.794;9.820;2023-07-28T19:19:15;3.92;;;3.47;;
40595;SDS011;26304;48.794;9.820;2023-07-28T19:24:58;4.30;;;2.42;;
40595;SDS011;26304;48.794;9.820;2023-07-28T19:30:42;2.40;;;2.20;;
40595;SDS011;26304;48.794;9.820;2023-07-28T19:36:24;1.88;;;1.77;;
40595;SDS011;26304;48.794;9.820;2023-07-28T19:42:07;2.10;;;1.85;;
40595;SDS011;26304;48.794;9.820;2023-07-28T19:47:51;2.30;;;1.98;;
40595;SDS011;26304;48.794;9.820;2023-07-28T19:53:33;2.40;;;2.20;;
40595;SDS011;26304;48.794;9.820;2023-07-28T19:59:16;3.05;;;2.65;;
40595;SDS011;26304;48.794;9.820;2023-07-28T20:04:59;3.20;;;3.00;;
40595;SDS011;26304;48.794;9.820;2023-07-28T20:10:42;3.30;;;3.00;;
40595;SDS011;26304;48.794;9.820;2023-07-28T20:16:24;3.38;;;3.15;;
40595;SDS011;26304;48.794;9.820;2023-07-28T20:22:08;3.35;;;3.15;;
40595;SDS011;26304;48.794;9.820;2023-07-28T20:27:51;3.75;;;3.45;;
40595;SDS011;26304;48.794;9.820;2023-07-28T20:33:34;3.83;;;3.53;;
40595;SDS011;26304;48.794;9.820;2023-07-28T20:39:18;4.82;;;4.43;;
40595;SDS011;26304;48.794;9.820;2023-07-28T20:45:02;4.07;;;3.78;;
40595;SDS011;26304;48.794;9.820;2023-07-28T20:50:45;4.43;;;4.05;;
40595;SDS011;26304;48.794;9.820;2023-07-28T20:56:28;5.03;;;4.53;;
40595;SDS011;26304;48.794;9.820;2023-07-28T21:02:11;4.88;;;4.25;;
40595;SDS011;26304;48.794;9.820;2023-07-28T21:07:54;4.10;;;3.80;;
40595;SDS011;26304;48.794;9.820;2023-07-28T21:13:38;4.22;;;3.92;;
40595;SDS011;26304;48.794;9.820;2023-07-28T21:19:21;3.40;;;3.10;;
40595;SDS011;26304;48.794;9.820;2023-07-28T21:25:03;3.10;;;2.85;;
40595;SDS011;26304;48.794;9.820;2023-07-28T21:30:48;3.15;;;2.88;;
40595;SDS011;26304;48.794;9.820;2023-07-28T21:36:30;3.67;;;2.88;;
40595;SDS011;26304;48.794;9.820;2023-07-28T21:42:12;2.88;;;2.53;;
40595;SDS011;26304;48.794;9.820;2023-07-28T21:47:56;2.35;;;2.10;;
40595;SDS011;26304;48.794;9.820;2023-07-28T21:53:39;2.58;;;2.38;;
40595;SDS011;26304;48.794;9.820;2023-07-28T21:59:21;2.70;;;2.22;;
40595;SDS011;26304;48.794;9.820;2023-07-28T22:05:05;2.08;;;1.98;;
40595;SDS011;26304;48.794;9.820;2023-07-28T22:10:49;2.20;;;2.03;;
40595;SDS011;26304;48.794;9.820;2023-07-28T22:16:31;1.85;;;1.75;;
40595;SDS011;26304;48.794;9.820;2023-07-28T22:22:15;2.63;;;1.83;;
40595;SDS011;26304;48.794;9.820;2023-07-28T22:27:57;2.38;;;1.60;;
40595;SDS011;26304;48.794;9.820;2023-07-28T22:33:40;1.63;;;1.52;;
40595;SDS011;26304;48.794;9.820;2023-07-28T22:39:23;1.75;;;1.65;;
40595;SDS011;26304;48.794;9.820;2023-07-28T22:45:06;1.60;;;1.50;;
40595;SDS011;26304;48.794;9.820;2023-07-28T22:50:49;1.92;;;1.80;;
40595;SDS011;26304;48.794;9.820;2023-07-28T22:56:33;1.52;;;1.42;;
40595;SDS011;26304;48.794;9.820;2023-07-28T23:02:15;1.60;;;1.50;;
40595;SDS011;26304;48.794;9.820;2023-07-28T23:07:57;1.50;;;1.40;;
40595;SDS011;26304;48.794;9.820;2023-07-28T23:13:41;1.40;;;1.30;;
40595;SDS011;26304;48.794;9.820;2023-07-28T23:19:24;2.05;;;1.40;;
40595;SDS011;26304;48.794;9.820;2023-07-28T23:25:06;1.83;;;1.73;;
40595;SDS011;26304;48.794;9.820;2023-07-28T23:30:51;1.70;;;1.60;;
40595;SDS011;26304;48.794;9.820;2023-07-28T23:36:33;1.33;;;1.20;;
40595;SDS011;26304;48.794;9.820;2023-07-28T23:42:16;1.67;;;1.58;;
40595;SDS011;26304;48.794;9.820;2023-07-28T23:48:00;1.27;;;1.20;;
40595;SDS011;26304;48.794;9.820;2023-07-28T23:53:42;1.90;;;1.63;;
40595;SDS011;26304;48.794;9.820;2023-07-28T23:59:25;1.48;;;1.38;;
